createdAt,value
2023-04-26T00:00:09.512Z,85.69
2023-04-26T00:02:40.145Z,86.00
2023-04-26T00:05:11.113Z,86.53
2023-04-26T00:07:39.594Z,86.73
2023-04-26T00:10:08.689Z,86.40
2023-04-26T00:12:37.554Z,86.71
2023-04-26T00:15:06.450Z,87.10
2023-04-26T00:17:34.748Z,86.98
2023-04-26T00:20:13.198Z,86.80
2023-04-26T00:22:43.662Z,86.58
2023-04-26T00:25:16.511Z,86.80
2023-04-26T00:27:47.815Z,86.44
2023-04-26T00:30:19.542Z,87.29
2023-04-26T00:32:48.251Z,86.97
2023-04-26T00:35:17.802Z,87.29
2023-04-26T00:37:46.626Z,86.79
2023-04-26T00:40:16.355Z,86.67
2023-04-26T00:42:44.396Z,86.60
2023-04-26T00:45:12.754Z,86.64
2023-04-26T00:47:41.302Z,86.18
2023-04-26T00:50:10.715Z,86.93
2023-04-26T00:52:40.618Z,86.10
2023-04-26T00:55:10.317Z,86.39
2023-04-26T00:57:38.718Z,86.49
2023-04-26T01:00:08.059Z,86.87
2023-04-26T01:02:37.857Z,85.95
2023-04-26T01:05:07.023Z,85.86
2023-04-26T01:07:36.713Z,85.88
2023-04-26T01:10:09.677Z,86.01
2023-04-26T01:12:38.360Z,86.77
2023-04-26T01:15:08.164Z,87.04
2023-04-26T01:17:37.971Z,86.92
2023-04-26T01:20:08.713Z,86.99
2023-04-26T01:22:38.153Z,87.17
2023-04-26T01:25:09.377Z,86.04
2023-04-26T01:27:37.507Z,86.37
2023-04-26T01:30:06.413Z,86.11
2023-04-26T01:32:35.103Z,85.83
2023-04-26T01:35:03.706Z,86.32
2023-04-26T01:37:31.775Z,86.58
2023-04-26T01:40:01.230Z,86.85
2023-04-26T01:42:29.293Z,86.13
2023-04-26T01:44:57.260Z,86.98
2023-04-26T01:47:26.430Z,86.69
2023-04-26T01:49:55.040Z,86.18
2023-04-26T01:52:24.338Z,86.13
2023-04-26T01:54:52.621Z,86.16
2023-04-26T01:57:22.352Z,85.54
2023-04-26T01:59:50.411Z,86.71
2023-04-26T02:02:19.127Z,86.08
2023-04-26T02:04:47.389Z,86.04
2023-04-26T02:07:15.929Z,87.30
2023-04-26T02:09:44.072Z,86.99
2023-04-26T02:12:12.122Z,87.24
2023-04-26T02:14:41.699Z,87.67
2023-04-26T02:17:11.411Z,86.70
2023-04-26T02:19:39.585Z,86.95
2023-04-26T02:22:08.163Z,86.36
2023-04-26T02:24:36.260Z,87.63
2023-04-26T02:27:05.057Z,86.79
2023-04-26T02:29:43.974Z,86.65
2023-04-26T02:32:15.377Z,87.23
2023-04-26T02:34:44.301Z,87.06
2023-04-26T02:37:12.257Z,86.58
2023-04-26T02:39:40.330Z,87.41
2023-04-26T02:42:10.326Z,87.24
2023-04-26T02:44:39.891Z,87.34
2023-04-26T02:47:08.275Z,86.09
2023-04-26T02:49:39.276Z,86.18
2023-04-26T02:52:07.413Z,86.11
2023-04-26T02:54:35.763Z,87.12
2023-04-26T02:57:03.924Z,88.16
2023-04-26T02:59:32.602Z,87.67
2023-04-26T03:02:00.823Z,87.83
2023-04-26T03:04:30.348Z,87.89
2023-04-26T03:06:59.873Z,87.75
2023-04-26T03:09:27.991Z,87.04
2023-04-26T03:11:56.127Z,88.14
2023-04-26T03:14:24.513Z,87.21
2023-04-26T03:16:52.919Z,87.30
2023-04-26T03:19:21.357Z,87.36
2023-04-26T03:21:49.437Z,88.17
2023-04-26T03:24:19.136Z,87.68
2023-04-26T03:26:50.098Z,87.34
2023-04-26T03:29:18.613Z,87.30
2023-04-26T03:31:46.654Z,86.92
2023-04-26T03:34:14.798Z,86.58
2023-04-26T03:36:42.957Z,87.11
2023-04-26T03:39:11.576Z,87.34
2023-04-26T03:41:41.131Z,85.81
2023-04-26T03:44:09.114Z,87.07
2023-04-26T03:46:37.418Z,86.41
2023-04-26T03:49:05.859Z,86.21
2023-04-26T03:51:33.906Z,86.78
2023-04-26T03:54:01.972Z,86.42
2023-04-26T03:56:30.002Z,86.78
2023-04-26T03:58:59.558Z,85.74
2023-04-26T04:01:27.792Z,85.95
2023-04-26T04:03:56.112Z,86.40
2023-04-26T04:06:24.560Z,86.30
2023-04-26T04:08:52.863Z,87.24
2023-04-26T04:11:23.403Z,86.67
2023-04-26T04:13:54.377Z,86.33
2023-04-26T04:16:24.091Z,85.78
2023-04-26T04:18:55.294Z,86.99
2023-04-26T04:21:23.798Z,86.43
2023-04-26T04:23:51.974Z,86.38
2023-04-26T04:26:21.117Z,86.08
2023-04-26T04:28:49.832Z,86.67
2023-04-26T04:31:18.215Z,85.66
2023-04-26T04:33:47.600Z,86.14
2023-04-26T04:36:19.156Z,86.13
2023-04-26T04:38:48.664Z,86.36
2023-04-26T04:41:16.777Z,86.78
2023-04-26T04:43:44.970Z,86.68
2023-04-26T04:46:13.328Z,86.35
2023-04-26T04:48:41.634Z,85.50
2023-04-26T04:51:11.078Z,86.04
2023-04-26T04:53:39.152Z,86.23
2023-04-26T04:56:07.733Z,86.00
2023-04-26T04:58:36.287Z,86.62
2023-04-26T05:01:04.349Z,86.74
2023-04-26T05:03:37.975Z,86.04
2023-04-26T05:06:08.147Z,85.76
2023-04-26T05:08:37.717Z,85.36
2023-04-26T05:11:05.709Z,85.91
2023-04-26T05:13:33.972Z,85.57
2023-04-26T05:16:02.078Z,85.48
2023-04-26T05:18:30.250Z,84.60
2023-04-26T05:20:59.251Z,85.25
2023-04-26T05:23:27.536Z,84.87
2023-04-26T05:25:56.906Z,85.10
2023-04-26T05:28:26.664Z,84.96
2023-04-26T05:30:54.759Z,84.73
2023-04-26T05:33:23.151Z,85.40
2023-04-26T05:35:52.693Z,85.85
2023-04-26T05:38:23.744Z,85.44
2023-04-26T05:40:51.964Z,85.63
2023-04-26T05:43:21.654Z,85.60
2023-04-26T05:45:56.981Z,85.18
2023-04-26T05:48:26.307Z,85.54
2023-04-26T05:50:54.508Z,85.65
2023-04-26T05:53:22.761Z,85.90
2023-04-26T05:55:50.938Z,86.68
2023-04-26T05:58:19.206Z,85.71
2023-04-26T06:00:48.838Z,85.42
2023-04-26T06:03:17.418Z,85.38
2023-04-26T06:05:45.753Z,84.96
2023-04-26T06:08:14.036Z,84.48
2023-04-26T06:10:42.101Z,83.33
2023-04-26T06:13:10.146Z,82.47
2023-04-26T06:15:38.289Z,82.89
2023-04-26T06:18:07.980Z,82.22
2023-04-26T06:20:36.207Z,81.98
2023-04-26T06:23:04.765Z,80.63
2023-04-26T06:25:34.052Z,80.29
2023-04-26T06:28:03.890Z,78.73
2023-04-26T06:30:34.802Z,76.90
2023-04-26T06:33:03.359Z,77.62
2023-04-26T06:35:32.898Z,78.02
2023-04-26T06:38:00.909Z,77.65
2023-04-26T06:40:29.192Z,77.33
2023-04-26T06:42:57.236Z,76.94
2023-04-26T06:45:25.502Z,75.61
2023-04-26T06:47:54.231Z,75.81
2023-04-26T06:50:22.704Z,74.22
2023-04-26T06:52:52.460Z,73.39
2023-04-26T06:55:22.110Z,72.89
2023-04-26T06:57:50.931Z,72.28
2023-04-26T07:00:22.163Z,72.08
2023-04-26T07:02:50.642Z,70.20
2023-04-26T07:05:19.315Z,68.30
2023-04-26T07:10:17.898Z,69.47
2023-04-26T07:12:45.952Z,67.10
2023-04-26T07:15:14.041Z,66.49
2023-04-26T07:17:42.243Z,66.93
2023-04-26T07:20:11.840Z,64.66
2023-04-26T07:22:40.361Z,65.50
2023-04-26T07:25:08.943Z,63.05
2023-04-26T07:27:38.903Z,63.30
2023-04-26T07:30:08.352Z,63.43
2023-04-26T07:32:36.722Z,63.62
2023-04-26T07:35:07.581Z,61.84
2023-04-26T07:37:35.652Z,61.80
2023-04-26T07:40:05.107Z,61.72
2023-04-26T07:42:33.287Z,61.59
2023-04-26T07:45:18.765Z,56.83
2023-04-26T07:47:48.051Z,55.23
2023-04-26T07:50:16.469Z,56.17
2023-04-26T07:52:44.760Z,55.73
2023-04-26T07:55:13.231Z,57.00
2023-04-26T07:57:41.891Z,53.57
2023-04-26T08:00:16.007Z,55.30
2023-04-26T08:02:46.111Z,53.13
2023-04-26T08:05:14.791Z,52.28
2023-04-26T08:07:49.035Z,51.61
2023-04-26T08:10:17.284Z,53.46
2023-04-26T08:12:45.572Z,52.19
2023-04-26T08:15:16.408Z,49.02
2023-04-26T08:17:44.708Z,49.06
2023-04-26T08:20:16.176Z,48.86
2023-04-26T08:22:44.448Z,48.19
2023-04-26T08:25:12.783Z,49.38
2023-04-26T08:27:41.247Z,48.29
2023-04-26T08:30:10.263Z,48.40
2023-04-26T08:32:41.189Z,48.64
2023-04-26T08:35:13.883Z,45.91
2023-04-26T08:37:42.460Z,45.51
2023-04-26T08:40:11.845Z,45.35
2023-04-26T08:42:43.877Z,45.27
2023-04-26T08:45:12.664Z,45.56
2023-04-26T08:47:46.189Z,46.54
2023-04-26T08:50:15.830Z,45.41
2023-04-26T08:52:45.256Z,46.32
2023-04-26T08:55:14.592Z,45.57
2023-04-26T08:57:44.798Z,46.60
2023-04-26T09:00:16.134Z,48.58
2023-04-26T09:02:49.427Z,48.54
2023-04-26T09:05:18.140Z,48.98
2023-04-26T09:07:48.549Z,48.67
2023-04-26T09:10:21.264Z,47.37
2023-04-26T09:12:53.808Z,45.09
2023-04-26T09:15:22.952Z,45.24
2023-04-26T09:17:52.920Z,46.51
2023-04-26T09:20:23.853Z,47.03
2023-04-26T09:22:53.940Z,47.07
2023-04-26T09:25:31.920Z,47.77
2023-04-26T09:28:01.748Z,44.64
2023-04-26T09:30:30.867Z,44.59
2023-04-26T09:33:03.567Z,45.89
2023-04-26T09:35:33.571Z,46.58
2023-04-26T09:38:10.553Z,44.65
2023-04-26T09:40:44.523Z,43.78
2023-04-26T09:43:14.215Z,45.75
2023-04-26T09:45:50.786Z,43.57
2023-04-26T09:48:23.078Z,45.17
2023-04-26T09:50:54.477Z,44.34
2023-04-26T09:53:31.219Z,45.21
2023-04-26T09:56:08.108Z,45.81
2023-04-26T09:58:37.895Z,44.98
2023-04-26T10:01:07.000Z,44.98
2023-04-26T10:03:38.923Z,44.96
2023-04-26T10:06:07.923Z,44.18
2023-04-26T10:08:37.427Z,43.96
2023-04-26T10:11:07.773Z,45.16
2023-04-26T10:13:36.395Z,47.76
2023-04-26T10:16:06.866Z,47.92
2023-04-26T10:18:36.841Z,46.90
2023-04-26T10:21:10.730Z,44.85
2023-04-26T10:23:39.570Z,44.90
2023-04-26T10:26:07.977Z,45.05
2023-04-26T10:29:02.150Z,45.43
2023-04-26T10:35:12.555Z,46.50
2023-04-26T10:38:14.123Z,45.02
2023-04-26T10:40:55.303Z,41.72
2023-04-26T10:43:33.602Z,43.53
2023-04-26T10:46:39.310Z,40.91
2023-04-26T10:49:26.400Z,41.69
2023-04-26T10:52:17.987Z,42.82
2023-04-26T10:54:56.672Z,42.98
2023-04-26T10:57:45.390Z,44.57
2023-04-26T11:00:25.093Z,42.74
2023-04-26T11:02:59.057Z,44.20
2023-04-26T11:06:03.907Z,42.63
2023-04-26T11:08:34.533Z,43.07
2023-04-26T11:11:11.208Z,44.31
2023-04-26T11:13:41.044Z,42.69
2023-04-26T11:16:10.780Z,41.70
2023-04-26T11:18:42.124Z,41.26
2023-04-26T11:21:10.944Z,42.16
2023-04-26T11:23:42.000Z,41.26
2023-04-26T11:26:11.754Z,42.46
2023-04-26T11:28:40.704Z,41.15
2023-04-26T11:31:09.576Z,41.56
2023-04-26T11:33:37.849Z,41.12
2023-04-26T11:36:06.254Z,39.98
2023-04-26T11:38:34.208Z,41.03
2023-04-26T11:41:04.591Z,40.01
2023-04-26T11:43:37.008Z,38.56
2023-04-26T11:46:06.978Z,41.04
2023-04-26T11:48:37.473Z,39.22
2023-04-26T11:51:07.844Z,39.85
2023-04-26T11:53:40.618Z,39.45
2023-04-26T11:56:17.790Z,40.53
2023-04-26T11:58:47.258Z,40.51
2023-04-26T12:01:22.327Z,40.89
2023-04-26T12:03:52.533Z,40.81
2023-04-26T12:06:21.225Z,38.47
2023-04-26T12:08:52.739Z,39.09
2023-04-26T12:11:22.481Z,39.62
2023-04-26T12:13:50.858Z,37.53
2023-04-26T12:16:26.090Z,39.40
2023-04-26T12:18:56.950Z,39.39
2023-04-26T12:21:28.142Z,39.99
2023-04-26T12:23:57.128Z,39.78
2023-04-26T12:26:42.851Z,37.84
2023-04-26T12:29:10.856Z,39.61
2023-04-26T12:31:39.103Z,38.96
2023-04-26T12:34:08.071Z,37.94
2023-04-26T12:36:36.477Z,37.54
2023-04-26T12:39:05.479Z,38.37
2023-04-26T12:41:35.217Z,38.19
2023-04-26T12:44:03.495Z,37.37
2023-04-26T12:46:32.299Z,38.17
2023-04-26T12:49:00.344Z,38.90
2023-04-26T12:51:30.010Z,38.40
2023-04-26T12:54:00.782Z,38.72
2023-04-26T12:56:30.486Z,37.46
2023-04-26T12:58:59.987Z,38.18
2023-04-26T13:01:28.163Z,39.52
2023-04-26T13:03:57.264Z,38.93
2023-04-26T13:06:25.508Z,38.24
2023-04-26T13:08:53.692Z,40.28
2023-04-26T13:11:22.178Z,37.72
2023-04-26T13:13:50.576Z,38.32
2023-04-26T13:16:20.248Z,38.27
2023-04-26T13:18:48.305Z,40.14
2023-04-26T13:21:16.271Z,39.37
2023-04-26T13:23:44.475Z,39.91
2023-04-26T13:26:15.117Z,39.93
2023-04-26T13:28:43.236Z,37.77
2023-04-26T13:31:21.758Z,38.67
2023-04-26T13:33:51.532Z,39.41
2023-04-26T13:36:19.802Z,38.81
2023-04-26T13:38:47.783Z,40.10
2023-04-26T13:41:17.480Z,40.45
2023-04-26T13:43:46.056Z,39.57
2023-04-26T13:46:14.287Z,37.57
2023-04-26T13:48:42.792Z,38.64
2023-04-26T13:51:12.739Z,39.01
2023-04-26T13:53:40.901Z,37.98
2023-04-26T13:56:09.898Z,39.08
2023-04-26T13:58:37.950Z,39.42
2023-04-26T14:01:06.179Z,37.77
2023-04-26T14:03:35.037Z,38.27
2023-04-26T14:06:04.301Z,39.04
2023-04-26T14:08:34.159Z,39.67
2023-04-26T14:11:02.508Z,39.47
2023-04-26T14:13:30.796Z,37.86
2023-04-26T14:15:59.060Z,39.25
2023-04-26T14:18:27.129Z,39.15
2023-04-26T14:20:55.122Z,40.02
2023-04-26T14:23:23.256Z,40.76
2023-04-26T14:25:54.848Z,39.52
2023-04-26T14:28:23.919Z,40.38
2023-04-26T14:30:51.971Z,40.74
2023-04-26T14:33:20.202Z,41.14
2023-04-26T14:35:48.433Z,41.03
2023-04-26T14:38:16.754Z,41.04
2023-04-26T14:40:45.567Z,41.24
2023-04-26T14:43:14.936Z,41.85
2023-04-26T14:45:45.013Z,40.29
2023-04-26T14:48:13.548Z,40.81
2023-04-26T14:50:41.862Z,41.25
2023-04-26T14:53:11.927Z,39.58
2023-04-26T14:55:42.326Z,39.42
2023-04-26T14:58:11.453Z,39.81
2023-04-26T15:00:43.487Z,40.73
2023-04-26T15:03:11.696Z,39.20
2023-04-26T15:05:39.910Z,39.69
2023-04-26T15:08:08.098Z,41.10
2023-04-26T15:10:36.145Z,41.83
2023-04-26T15:13:04.411Z,41.13
2023-04-26T15:15:32.399Z,40.88
2023-04-26T15:18:01.964Z,41.26
2023-04-26T15:20:30.058Z,41.69
2023-04-26T15:22:57.960Z,41.56
2023-04-26T15:25:25.963Z,41.05
2023-04-26T15:27:53.952Z,40.88
2023-04-26T15:30:22.160Z,41.64
2023-04-26T15:32:50.850Z,41.12
2023-04-26T15:35:20.202Z,42.01
2023-04-26T15:37:48.194Z,41.02
2023-04-26T15:40:16.193Z,42.09
2023-04-26T15:42:44.149Z,41.70
2023-04-26T15:45:12.822Z,42.42
2023-04-26T15:47:41.157Z,43.16
2023-04-26T15:50:09.829Z,42.82
2023-04-26T15:52:40.647Z,42.77
2023-04-26T15:55:09.849Z,43.28
2023-04-26T15:57:38.434Z,42.14
2023-04-26T16:00:08.754Z,42.60
2023-04-26T16:02:37.112Z,42.35
2023-04-26T16:05:08.335Z,43.23
2023-04-26T16:07:38.712Z,42.75
2023-04-26T16:10:10.059Z,42.30
2023-04-26T16:12:39.753Z,43.09
2023-04-26T16:15:09.611Z,42.41
2023-04-26T16:17:38.200Z,43.06
2023-04-26T16:20:08.330Z,43.31
2023-04-26T16:22:36.914Z,43.78
2023-04-26T16:25:07.009Z,42.81
2023-04-26T16:27:36.926Z,42.90
2023-04-26T16:30:05.710Z,43.14
2023-04-26T16:32:34.351Z,41.78
2023-04-26T16:35:02.652Z,42.40
2023-04-26T16:37:31.542Z,41.57
2023-04-26T16:40:00.267Z,42.03
2023-04-26T16:42:28.292Z,41.85
2023-04-26T16:44:58.084Z,42.04
2023-04-26T16:47:27.078Z,42.09
2023-04-26T16:49:55.197Z,42.22
2023-04-26T16:52:23.202Z,42.41
2023-04-26T16:54:51.464Z,42.41
2023-04-26T16:57:19.505Z,43.12
2023-04-26T16:59:47.900Z,43.09
2023-04-26T17:02:17.426Z,43.57
2023-04-26T17:04:45.798Z,44.08
2023-04-26T17:07:13.887Z,42.60
2023-04-26T17:09:41.962Z,42.96
2023-04-26T17:12:09.970Z,42.84
2023-04-26T17:14:41.649Z,42.39
2023-04-26T17:17:09.677Z,42.97
2023-04-26T17:19:39.024Z,42.71
2023-04-26T17:22:07.437Z,43.46
2023-04-26T17:24:35.830Z,43.51
2023-04-26T17:27:04.566Z,43.31
2023-04-26T17:29:32.713Z,42.74
2023-04-26T17:32:01.273Z,43.46
2023-04-26T17:34:29.471Z,44.44
2023-04-26T17:36:58.966Z,45.16
2023-04-26T17:39:27.133Z,45.31
2023-04-26T17:41:55.090Z,45.21
2023-04-26T17:44:23.066Z,45.30
2023-04-26T17:46:51.048Z,45.74
2023-04-26T17:49:18.963Z,44.54
2023-04-26T17:51:47.084Z,44.84
2023-04-26T17:54:17.015Z,45.23
2023-04-26T17:56:45.233Z,46.45
2023-04-26T17:59:13.537Z,45.53
2023-04-26T18:01:41.721Z,45.57
2023-04-26T18:04:09.900Z,45.83
2023-04-26T18:06:38.060Z,46.15
2023-04-26T18:09:07.264Z,46.44
2023-04-26T18:11:36.707Z,46.53
2023-04-26T18:14:04.709Z,46.57
2023-04-26T18:16:33.463Z,46.81
2023-04-26T18:19:01.438Z,47.15
2023-04-26T18:21:29.774Z,47.35
2023-04-26T18:23:58.383Z,47.16
2023-04-26T18:26:27.004Z,46.77
2023-04-26T18:28:56.644Z,48.08
2023-04-26T18:31:24.748Z,47.85
2023-04-26T18:33:52.844Z,47.38
2023-04-26T18:36:20.825Z,47.74
2023-04-26T18:38:48.789Z,48.78
2023-04-26T18:41:16.838Z,48.18
2023-04-26T18:43:44.831Z,48.81
2023-04-26T18:46:16.516Z,49.42
2023-04-26T18:48:44.539Z,49.46
2023-04-26T18:51:12.667Z,48.49
2023-04-26T18:53:41.488Z,48.57
2023-04-26T18:56:09.940Z,49.66
2023-04-26T18:58:38.934Z,51.52
2023-04-26T19:01:07.015Z,51.18
2023-04-26T19:03:37.078Z,50.53
2023-04-26T19:06:09.069Z,50.17
2023-04-26T19:08:37.255Z,50.14
2023-04-26T19:11:06.469Z,51.39
2023-04-26T19:13:34.476Z,52.37
2023-04-26T19:16:04.623Z,53.44
2023-04-26T19:18:32.847Z,53.21
2023-04-26T19:21:05.772Z,53.77
2023-04-26T19:23:33.853Z,54.53
2023-04-26T19:26:06.368Z,53.49
2023-04-26T19:28:34.790Z,51.65
2023-04-26T19:31:02.883Z,53.39
2023-04-26T19:33:32.477Z,53.80
2023-04-26T19:36:00.813Z,53.24
2023-04-26T19:38:30.806Z,54.73
2023-04-26T19:40:58.825Z,54.99
2023-04-26T19:43:27.570Z,55.38
2023-04-26T19:45:55.617Z,55.65
2023-04-26T19:48:24.377Z,55.10
2023-04-26T19:50:52.494Z,55.46
2023-04-26T19:53:20.594Z,54.51
2023-04-26T19:55:50.459Z,55.38
2023-04-26T19:58:19.504Z,55.09
2023-04-26T20:00:47.639Z,56.54
2023-04-26T20:03:15.878Z,56.16
2023-04-26T20:05:44.028Z,56.90
2023-04-26T20:08:12.069Z,57.12
2023-04-26T20:10:42.008Z,57.09
2023-04-26T20:13:12.014Z,57.34
2023-04-26T20:15:40.368Z,56.30
2023-04-26T20:18:08.559Z,57.47
2023-04-26T20:20:37.186Z,57.35
2023-04-26T20:23:05.199Z,56.50
2023-04-26T20:25:35.545Z,57.10
2023-04-26T20:28:04.315Z,57.15
2023-04-26T20:30:36.125Z,58.61
2023-04-26T20:33:05.000Z,58.19
2023-04-26T20:35:33.178Z,58.02
2023-04-26T20:38:01.571Z,57.62
2023-04-26T20:40:29.862Z,57.75
2023-04-26T20:42:58.232Z,58.29
2023-04-26T20:45:26.470Z,58.22
2023-04-26T20:47:56.542Z,58.26
2023-04-26T20:50:27.105Z,58.44
2023-04-26T20:52:55.567Z,58.69
2023-04-26T20:55:24.003Z,58.84
2023-04-26T20:57:52.004Z,58.65
2023-04-26T21:00:20.846Z,58.80
2023-04-26T21:02:48.955Z,58.73
2023-04-26T21:05:18.458Z,58.95
2023-04-26T21:07:46.820Z,59.24
2023-04-26T21:10:15.033Z,59.26
2023-04-26T21:12:43.213Z,58.99
2023-04-26T21:15:13.149Z,59.78
2023-04-26T21:17:41.768Z,60.18
2023-04-26T21:20:10.658Z,60.39
2023-04-26T21:22:40.380Z,60.45
2023-04-26T21:25:09.312Z,61.19
2023-04-26T21:27:37.384Z,62.96
2023-04-26T21:30:06.244Z,62.56
2023-04-26T21:32:34.305Z,63.56
2023-04-26T21:35:03.609Z,64.09
2023-04-26T21:37:31.925Z,63.91
2023-04-26T21:40:01.554Z,64.09
2023-04-26T21:42:29.659Z,64.03
2023-04-26T21:44:59.102Z,64.12
2023-04-26T21:47:29.699Z,64.68
2023-04-26T21:49:58.119Z,64.75
2023-04-26T21:52:27.657Z,64.55
2023-04-26T21:54:57.388Z,64.44
2023-04-26T21:57:28.992Z,63.74
2023-04-26T21:59:59.569Z,63.18
2023-04-26T22:02:28.637Z,62.70
2023-04-26T22:04:56.961Z,61.98
2023-04-26T22:07:24.935Z,60.49
2023-04-26T22:09:53.000Z,60.04
2023-04-26T22:12:21.181Z,60.40
2023-04-26T22:14:50.634Z,60.74
2023-04-26T22:17:18.888Z,60.96
2023-04-26T22:19:48.975Z,61.06
2023-04-26T22:22:17.738Z,61.40
2023-04-26T22:24:48.064Z,62.21
2023-04-26T22:27:17.160Z,62.36
2023-04-26T22:29:45.450Z,62.71
2023-04-26T22:32:15.350Z,63.22
2023-04-26T22:34:43.958Z,63.58
2023-04-26T22:37:20.147Z,63.71
2023-04-26T22:39:51.315Z,63.28
2023-04-26T22:42:21.382Z,63.30
2023-04-26T22:44:50.905Z,63.70
2023-04-26T22:47:23.617Z,63.60
2023-04-26T22:49:52.956Z,62.94
2023-04-26T22:52:30.953Z,62.86
2023-04-26T22:55:00.352Z,63.42
2023-04-26T22:57:28.488Z,63.46
2023-04-26T22:59:56.718Z,63.74
2023-04-26T23:02:26.437Z,63.89
2023-04-26T23:04:54.853Z,64.37
2023-04-26T23:07:23.043Z,64.37
2023-04-26T23:09:51.252Z,65.10
2023-04-26T23:12:20.231Z,65.03
2023-04-26T23:14:49.074Z,65.06
2023-04-26T23:17:17.211Z,65.31
2023-04-26T23:19:46.964Z,65.27
2023-04-26T23:22:15.734Z,64.56
2023-04-26T23:24:43.941Z,64.45
2023-04-26T23:27:12.229Z,64.47
2023-04-26T23:29:41.474Z,64.48
2023-04-26T23:32:09.445Z,64.47
2023-04-26T23:34:37.511Z,65.03
2023-04-26T23:37:08.243Z,64.52
2023-04-26T23:39:36.715Z,63.99
2023-04-26T23:42:05.114Z,64.33
2023-04-26T23:44:33.160Z,64.72
2023-04-26T23:47:01.468Z,65.15
2023-04-26T23:49:29.563Z,65.01
2023-04-26T23:51:58.028Z,65.40
2023-04-26T23:54:27.950Z,65.05
2023-04-26T23:56:59.185Z,65.56
2023-04-26T23:59:31.958Z,66.01
